createdAt,value
2023-05-19T00:05:19.441Z,2.33
2023-05-19T00:11:26.858Z,2.20
2023-05-19T00:14:29.889Z,2.67
2023-05-19T00:17:34.340Z,1.77
2023-05-19T00:20:37.731Z,1.87
2023-05-19T00:23:40.311Z,2.33
2023-05-19T00:26:44.320Z,1.90
2023-05-19T00:29:46.899Z,2.27
2023-05-19T00:32:49.758Z,1.60
2023-05-19T00:35:52.298Z,2.38
2023-05-19T00:38:54.894Z,2.10
2023-05-19T00:41:58.824Z,1.90
2023-05-19T00:45:01.383Z,2.27
2023-05-19T00:48:04.221Z,1.97
2023-05-19T00:51:06.911Z,1.80
2023-05-19T00:54:09.548Z,2.00
2023-05-19T00:57:13.683Z,1.85
2023-05-19T01:00:17.212Z,2.57
2023-05-19T01:06:23.516Z,2.67
2023-05-19T01:09:26.100Z,2.20
2023-05-19T01:12:30.635Z,2.57
2023-05-19T01:15:35.821Z,2.07
2023-05-19T01:18:45.483Z,1.67
2023-05-19T01:22:23.735Z,1.90
2023-05-19T01:25:43.735Z,2.10
2023-05-19T01:29:10.059Z,2.97
2023-05-19T01:32:17.133Z,2.20
2023-05-19T01:35:20.306Z,1.80
2023-05-19T01:38:23.204Z,2.00
2023-05-19T01:41:26.456Z,1.70
2023-05-19T01:44:29.726Z,1.60
2023-05-19T01:47:34.065Z,1.95
2023-05-19T01:50:36.833Z,2.43
2023-05-19T01:53:39.436Z,1.65
2023-05-19T01:56:46.482Z,2.20
2023-05-19T01:59:54.989Z,1.83
2023-05-19T02:03:06.384Z,1.93
2023-05-19T02:06:20.470Z,1.87
2023-05-19T02:09:26.379Z,1.97
2023-05-19T02:12:31.320Z,1.43
2023-05-19T02:15:39.543Z,1.90
2023-05-19T02:18:45.526Z,1.90
2023-05-19T02:21:48.251Z,2.07
2023-05-19T02:24:51.761Z,1.97
2023-05-19T02:30:56.858Z,2.23
2023-05-19T02:34:00.847Z,2.33
2023-05-19T02:37:03.416Z,2.27
2023-05-19T02:40:08.221Z,3.10
2023-05-19T02:43:11.073Z,1.87
2023-05-19T02:46:13.584Z,1.75
2023-05-19T02:49:17.475Z,1.70
2023-05-19T02:52:20.142Z,2.20
2023-05-19T02:55:22.709Z,2.47
2023-05-19T02:58:25.303Z,1.80
2023-05-19T03:01:27.847Z,1.77
2023-05-19T03:04:32.198Z,1.60
2023-05-19T03:07:34.961Z,1.67
2023-05-19T03:10:37.575Z,1.90
2023-05-19T03:13:40.198Z,1.83
2023-05-19T03:16:43.076Z,2.17
2023-05-19T03:19:47.039Z,2.17
2023-05-19T03:22:49.720Z,1.77
2023-05-19T03:25:54.164Z,2.13
2023-05-19T03:28:56.796Z,1.90
2023-05-19T03:31:59.849Z,1.60
2023-05-19T03:35:04.006Z,2.53
2023-05-19T03:38:06.642Z,1.87
2023-05-19T03:41:09.266Z,2.05
2023-05-19T03:44:11.861Z,1.57
2023-05-19T03:47:14.461Z,1.67
2023-05-19T03:50:18.364Z,1.97
2023-05-19T03:53:20.960Z,2.50
2023-05-19T03:56:27.823Z,2.00
2023-05-19T03:59:31.343Z,2.10
2023-05-19T04:05:38.163Z,2.27
2023-05-19T04:08:40.884Z,2.17
2023-05-19T04:11:44.122Z,2.03
2023-05-19T04:14:46.793Z,2.00
2023-05-19T04:17:49.415Z,1.95
2023-05-19T04:20:53.321Z,3.08
2023-05-19T04:23:55.931Z,1.90
2023-05-19T04:27:02.229Z,2.53
2023-05-19T04:30:05.242Z,2.17
2023-05-19T04:33:08.002Z,2.85
2023-05-19T04:36:13.793Z,3.05
2023-05-19T04:39:16.422Z,2.80
2023-05-19T04:42:20.257Z,2.03
2023-05-19T04:45:23.263Z,2.00
2023-05-19T04:48:26.065Z,1.85
2023-05-19T04:51:31.272Z,2.15
2023-05-19T04:54:34.074Z,2.30
2023-05-19T04:57:37.521Z,2.05
2023-05-19T05:00:40.288Z,2.70
2023-05-19T05:03:43.213Z,2.17
2023-05-19T05:06:48.778Z,2.10
2023-05-19T05:09:51.603Z,3.00
2023-05-19T05:12:54.769Z,1.98
2023-05-19T05:15:58.492Z,2.67
2023-05-19T05:19:01.976Z,2.47
2023-05-19T05:28:12.073Z,1.88
2023-05-19T05:31:14.787Z,2.42
2023-05-19T05:34:17.689Z,2.35
2023-05-19T05:37:21.679Z,1.90
2023-05-19T05:40:24.332Z,2.20
2023-05-19T05:43:27.041Z,1.90
2023-05-19T05:46:29.670Z,2.75
2023-05-19T05:49:32.980Z,2.20
2023-05-19T05:52:38.179Z,2.10
2023-05-19T05:55:41.470Z,2.70
2023-05-19T05:58:44.056Z,2.70
2023-05-19T06:01:46.917Z,2.17
2023-05-19T06:04:49.587Z,2.45
2023-05-19T06:07:53.469Z,2.25
2023-05-19T06:10:56.113Z,2.57
2023-05-19T06:13:58.753Z,2.08
2023-05-19T06:17:01.366Z,2.60
2023-05-19T06:20:05.652Z,2.17
2023-05-19T06:23:09.556Z,2.30
2023-05-19T06:26:12.308Z,3.00
2023-05-19T06:29:14.983Z,2.75
2023-05-19T06:32:17.708Z,2.67
2023-05-19T06:35:20.460Z,2.40
2023-05-19T06:38:24.531Z,2.10
2023-05-19T06:41:27.529Z,2.30
2023-05-19T06:44:30.111Z,2.50
2023-05-19T06:47:32.706Z,2.25
2023-05-19T06:50:35.569Z,2.83
2023-05-19T06:53:39.822Z,2.35
2023-05-19T06:56:42.719Z,2.07
2023-05-19T06:59:46.717Z,2.20
2023-05-19T07:02:49.403Z,2.53
2023-05-19T07:05:52.201Z,2.42
2023-05-19T07:08:56.710Z,2.20
2023-05-19T07:12:01.248Z,2.50
2023-05-19T07:15:04.329Z,2.47
2023-05-19T07:18:07.188Z,2.40
2023-05-19T07:21:09.782Z,2.95
2023-05-19T07:24:13.659Z,2.35
2023-05-19T07:27:16.205Z,2.37
2023-05-19T07:30:18.813Z,2.45
2023-05-19T07:33:21.455Z,2.42
2023-05-19T07:36:24.100Z,2.03
2023-05-19T07:39:29.677Z,2.38
2023-05-19T07:42:32.412Z,2.27
2023-05-19T07:45:35.201Z,2.15
2023-05-19T07:48:38.138Z,2.50
2023-05-19T07:51:41.796Z,3.47
2023-05-19T07:54:46.722Z,2.67
2023-05-19T07:57:49.813Z,2.00
2023-05-19T08:00:53.278Z,2.80
2023-05-19T08:03:56.004Z,2.40
2023-05-19T08:06:59.002Z,2.45
2023-05-19T08:10:03.135Z,2.03
2023-05-19T08:13:05.838Z,2.70
2023-05-19T08:16:08.583Z,2.42
2023-05-19T08:19:11.282Z,2.20
2023-05-19T08:22:14.082Z,2.45
2023-05-19T08:25:19.732Z,1.90
2023-05-19T08:28:22.542Z,2.10
2023-05-19T08:31:25.503Z,1.95
2023-05-19T08:34:28.140Z,1.73
2023-05-19T08:37:33.254Z,2.47
2023-05-19T08:40:38.835Z,2.40
2023-05-19T08:43:41.442Z,2.30
2023-05-19T08:46:44.305Z,2.72
2023-05-19T08:49:48.475Z,1.75
2023-05-19T08:52:53.634Z,2.10
2023-05-19T08:56:04.093Z,2.23
2023-05-19T08:59:07.390Z,2.47
2023-05-19T09:02:12.116Z,1.92
2023-05-19T09:05:15.950Z,2.13
2023-05-19T09:08:18.795Z,1.70
2023-05-19T09:11:23.041Z,2.35
2023-05-19T09:14:25.771Z,2.20
2023-05-19T09:17:28.477Z,1.98
2023-05-19T09:20:31.835Z,2.00
2023-05-19T09:26:39.928Z,2.57
2023-05-19T09:29:42.728Z,1.80
2023-05-19T09:32:45.619Z,2.03
2023-05-19T09:35:48.630Z,2.20
2023-05-19T09:38:51.294Z,2.85
2023-05-19T09:41:56.247Z,1.85
2023-05-19T09:45:02.715Z,2.03
2023-05-19T09:48:06.256Z,2.30
2023-05-19T09:51:10.362Z,2.10
2023-05-19T09:54:16.168Z,2.07
2023-05-19T09:57:27.071Z,2.60
2023-05-19T10:00:31.014Z,2.03
2023-05-19T10:03:35.125Z,2.13
2023-05-19T10:06:38.466Z,2.50
2023-05-19T10:09:42.696Z,2.35
2023-05-19T10:12:47.263Z,2.40
2023-05-19T10:19:00.895Z,2.20
2023-05-19T10:22:03.531Z,2.47
2023-05-19T10:25:06.940Z,2.55
2023-05-19T10:28:14.272Z,1.93
2023-05-19T10:31:19.741Z,2.30
2023-05-19T10:34:37.412Z,1.97
2023-05-19T10:37:46.363Z,2.03
2023-05-19T10:40:55.143Z,2.30
2023-05-19T10:44:09.006Z,2.20
2023-05-19T10:47:12.679Z,2.20
2023-05-19T10:50:15.688Z,2.27
2023-05-19T10:53:19.487Z,2.08
2023-05-19T10:56:33.825Z,1.80
2023-05-19T10:59:39.343Z,1.80
2023-05-19T11:02:43.360Z,1.83
2023-05-19T11:05:46.479Z,2.27
2023-05-19T11:08:54.175Z,2.08
2023-05-19T11:11:57.093Z,2.27
2023-05-19T11:15:01.041Z,2.33
2023-05-19T11:18:04.097Z,2.50
2023-05-19T11:21:06.940Z,1.98
2023-05-19T11:24:09.764Z,1.98
2023-05-19T11:27:22.759Z,1.90
2023-05-19T11:30:26.629Z,2.70
2023-05-19T11:33:30.132Z,2.17
2023-05-19T11:36:32.837Z,1.70
2023-05-19T11:39:35.841Z,2.47
2023-05-19T11:42:38.566Z,1.85
2023-05-19T11:45:42.792Z,2.30
2023-05-19T11:48:48.368Z,1.90
2023-05-19T11:51:50.961Z,2.20
2023-05-19T11:54:53.518Z,2.20
2023-05-19T11:58:04.044Z,1.85
2023-05-19T12:01:10.214Z,2.70
2023-05-19T12:04:12.800Z,2.23
2023-05-19T12:07:18.349Z,2.80
2023-05-19T12:10:24.093Z,2.60
2023-05-19T12:13:26.771Z,1.90
2023-05-19T12:16:36.790Z,2.45
2023-05-19T12:19:39.502Z,1.97
2023-05-19T12:22:42.333Z,2.50
2023-05-19T12:25:45.100Z,2.50
2023-05-19T12:28:47.898Z,2.88
2023-05-19T12:31:51.976Z,2.70
2023-05-19T12:34:56.417Z,2.13
2023-05-19T12:38:03.928Z,2.20
2023-05-19T12:41:06.976Z,2.50
2023-05-19T12:44:16.222Z,2.20
2023-05-19T12:47:21.090Z,2.20
2023-05-19T12:50:31.365Z,3.10
2023-05-19T12:53:34.712Z,2.30
2023-05-19T12:56:37.397Z,2.28
2023-05-19T12:59:40.171Z,2.80
2023-05-19T13:02:59.055Z,2.28
2023-05-19T13:06:01.744Z,2.50
2023-05-19T13:09:04.848Z,2.35
2023-05-19T13:12:07.856Z,3.25
2023-05-19T13:15:11.139Z,2.83
2023-05-19T13:21:18.029Z,2.87
2023-05-19T13:24:20.827Z,2.97
2023-05-19T13:27:24.754Z,2.38
2023-05-19T13:30:27.812Z,2.40
2023-05-19T13:33:31.927Z,2.25
2023-05-19T13:36:35.095Z,2.40
2023-05-19T13:39:37.742Z,2.42
2023-05-19T13:42:40.481Z,2.33
2023-05-19T13:45:44.724Z,2.25
2023-05-19T13:48:48.630Z,2.27
2023-05-19T13:51:51.423Z,2.53
2023-05-19T13:54:54.514Z,1.95
2023-05-19T13:57:57.161Z,2.05
2023-05-19T14:01:00.073Z,2.20
2023-05-19T14:04:05.312Z,2.38
2023-05-19T14:07:09.644Z,2.00
2023-05-19T14:10:12.592Z,2.10
2023-05-19T14:16:28.760Z,2.35
2023-05-19T14:19:32.791Z,2.22
2023-05-19T14:22:35.386Z,2.37
2023-05-19T14:25:38.118Z,2.28
2023-05-19T14:28:40.802Z,2.17
2023-05-19T14:31:43.441Z,2.97
2023-05-19T14:34:47.639Z,2.63
2023-05-19T14:37:50.324Z,3.20
2023-05-19T14:40:53.015Z,2.28
2023-05-19T14:43:56.117Z,3.20
2023-05-19T14:46:59.018Z,2.42
2023-05-19T14:50:03.198Z,2.10
2023-05-19T14:53:06.023Z,2.17
2023-05-19T14:56:09.302Z,2.80
2023-05-19T15:02:14.510Z,1.97
2023-05-19T15:05:18.726Z,2.10
2023-05-19T15:08:21.405Z,3.07
2023-05-19T15:11:24.019Z,2.83
2023-05-19T15:14:27.936Z,2.28
2023-05-19T15:17:32.033Z,3.00
2023-05-19T15:20:36.246Z,2.05
2023-05-19T15:23:38.986Z,1.80
2023-05-19T15:26:41.768Z,2.72
2023-05-19T15:29:44.422Z,2.30
2023-05-19T15:32:47.017Z,2.35
2023-05-19T15:35:52.048Z,3.13
2023-05-19T15:38:54.704Z,2.30
2023-05-19T15:41:57.539Z,2.50
2023-05-19T15:45:00.240Z,1.55
2023-05-19T15:48:02.775Z,2.28
2023-05-19T15:51:07.013Z,2.13
2023-05-19T15:54:09.593Z,2.00
2023-05-19T15:57:13.498Z,2.63
2023-05-19T16:00:16.808Z,2.30
2023-05-19T16:06:24.629Z,2.83
2023-05-19T16:09:27.343Z,2.00
2023-05-19T16:12:29.946Z,2.22
2023-05-19T16:15:32.498Z,2.22
2023-05-19T16:18:35.094Z,2.22
2023-05-19T16:21:39.255Z,2.20
2023-05-19T16:24:42.022Z,2.03
2023-05-19T16:27:44.751Z,1.67
2023-05-19T16:30:47.422Z,1.80
2023-05-19T16:33:50.098Z,2.83
2023-05-19T16:36:53.952Z,2.22
2023-05-19T16:39:56.615Z,1.73
2023-05-19T16:42:59.523Z,2.10
2023-05-19T16:46:03.470Z,2.30
2023-05-19T16:49:06.813Z,2.13
2023-05-19T16:55:17.245Z,2.17
2023-05-19T16:58:19.969Z,1.70
2023-05-19T17:01:22.724Z,2.08
2023-05-19T17:04:25.428Z,1.90
2023-05-19T17:07:30.040Z,1.95
2023-05-19T17:10:32.751Z,1.80
2023-05-19T17:13:36.683Z,2.00
2023-05-19T17:16:39.417Z,2.00
2023-05-19T17:19:42.169Z,2.10
2023-05-19T17:22:46.195Z,2.17
2023-05-19T17:25:48.807Z,1.87
2023-05-19T17:28:51.445Z,2.28
2023-05-19T17:31:54.207Z,2.10
2023-05-19T17:34:56.956Z,1.73
2023-05-19T17:38:01.090Z,1.98
2023-05-19T17:41:09.556Z,1.93
2023-05-19T17:44:12.611Z,1.70
2023-05-19T17:47:15.156Z,1.48
2023-05-19T17:50:17.960Z,2.15
2023-05-19T17:53:22.523Z,2.05
2023-05-19T17:56:25.826Z,2.10
2023-05-19T17:59:28.929Z,1.60
2023-05-19T18:05:34.852Z,2.00
2023-05-19T18:08:39.937Z,1.80
2023-05-19T18:11:42.552Z,2.80
2023-05-19T18:14:45.209Z,1.83
2023-05-19T18:17:48.219Z,1.70
2023-05-19T18:20:50.829Z,2.08
2023-05-19T18:23:54.744Z,2.10
2023-05-19T18:26:57.367Z,1.97
2023-05-19T18:30:00.347Z,2.88
2023-05-19T18:33:04.041Z,2.17
2023-05-19T18:36:07.343Z,2.03
2023-05-19T18:39:11.444Z,2.60
2023-05-19T18:42:14.132Z,2.43
2023-05-19T18:45:16.880Z,2.47
2023-05-19T18:48:19.502Z,2.03
2023-05-19T18:51:22.266Z,3.00
2023-05-19T18:54:26.292Z,2.72
2023-05-19T18:57:28.887Z,2.77
2023-05-19T19:00:31.576Z,3.78
2023-05-19T19:03:34.285Z,3.97
2023-05-19T19:06:36.884Z,3.40
2023-05-19T19:09:43.813Z,3.33
2023-05-19T19:12:46.539Z,3.23
2023-05-19T19:15:49.193Z,3.65
2023-05-19T19:18:51.887Z,5.82
2023-05-19T19:21:54.732Z,5.40
2023-05-19T19:24:58.685Z,3.80
2023-05-19T19:28:02.187Z,3.37
2023-05-19T19:34:09.157Z,3.53
2023-05-19T19:37:14.368Z,3.70
2023-05-19T19:40:18.666Z,3.43
2023-05-19T19:43:21.346Z,2.87
2023-05-19T19:46:23.883Z,3.97
2023-05-19T19:49:26.929Z,3.63
2023-05-19T19:52:29.635Z,3.92
2023-05-19T19:55:33.678Z,3.20
2023-05-19T19:58:36.271Z,3.43
2023-05-19T20:01:38.908Z,4.28
2023-05-19T20:04:41.729Z,3.50
2023-05-19T20:07:44.664Z,3.40
2023-05-19T20:10:49.804Z,3.40
2023-05-19T20:13:52.852Z,3.40
2023-05-19T20:16:55.692Z,3.40
2023-05-19T20:19:59.841Z,2.55
2023-05-19T20:23:02.523Z,3.60
2023-05-19T20:26:12.417Z,3.83
2023-05-19T20:29:16.812Z,3.87
2023-05-19T20:35:22.485Z,3.90
2023-05-19T20:38:25.193Z,3.65
2023-05-19T20:41:29.210Z,5.60
2023-05-19T20:44:31.819Z,5.00
2023-05-19T20:47:34.500Z,5.30
2023-05-19T20:50:37.087Z,3.83
2023-05-19T20:53:39.708Z,3.50
2023-05-19T20:56:44.035Z,3.72
2023-05-19T20:59:46.716Z,4.03
2023-05-19T21:02:49.627Z,3.10
2023-05-19T21:05:52.490Z,3.40
2023-05-19T21:08:55.583Z,2.90
2023-05-19T21:11:59.836Z,3.72
2023-05-19T21:15:03.681Z,4.13
2023-05-19T21:18:07.318Z,3.60
2023-05-19T21:21:10.072Z,3.83
2023-05-19T21:24:13.108Z,4.38
2023-05-19T21:27:17.107Z,3.85
2023-05-19T21:30:20.259Z,3.57
2023-05-19T21:33:23.071Z,4.03
2023-05-19T21:36:25.785Z,3.65
2023-05-19T21:39:28.566Z,3.30
2023-05-19T21:42:32.530Z,3.45
2023-05-19T21:45:35.076Z,3.87
2023-05-19T21:48:37.677Z,4.50
2023-05-19T21:51:40.192Z,6.40
2023-05-19T21:54:43.106Z,5.97
2023-05-19T21:57:47.065Z,6.40
2023-05-19T22:00:50.779Z,5.20
2023-05-19T22:03:53.964Z,4.90
2023-05-19T22:06:56.615Z,4.47
2023-05-19T22:09:59.197Z,4.03
2023-05-19T22:13:03.092Z,3.15
2023-05-19T22:16:06.143Z,3.27
2023-05-19T22:19:08.835Z,3.03
2023-05-19T22:22:14.102Z,3.42
2023-05-19T22:25:17.623Z,3.37
2023-05-19T22:28:21.498Z,2.75
2023-05-19T22:31:24.142Z,2.90
2023-05-19T22:34:26.701Z,2.90
2023-05-19T22:37:29.610Z,3.60
2023-05-19T22:40:32.516Z,2.70
2023-05-19T22:43:36.660Z,2.88
2023-05-19T22:46:39.219Z,2.83
2023-05-19T22:49:42.291Z,2.63
2023-05-19T22:52:44.927Z,2.63
2023-05-19T22:55:47.599Z,2.77
2023-05-19T22:58:51.651Z,2.67
2023-05-19T23:01:54.346Z,2.80
2023-05-19T23:04:56.963Z,2.78
2023-05-19T23:07:59.506Z,2.65
2023-05-19T23:11:02.290Z,3.00
2023-05-19T23:14:06.157Z,3.83
2023-05-19T23:17:08.903Z,2.93
2023-05-19T23:20:13.265Z,3.08
2023-05-19T23:23:17.219Z,2.83
2023-05-19T23:26:19.791Z,2.80
2023-05-19T23:29:23.690Z,2.83
2023-05-19T23:32:27.115Z,2.83
2023-05-19T23:38:32.483Z,2.80
2023-05-19T23:41:35.160Z,3.30
2023-05-19T23:44:39.509Z,2.70
2023-05-19T23:47:42.089Z,2.40
2023-05-19T23:50:44.909Z,2.72
2023-05-19T23:53:47.471Z,3.10
2023-05-19T23:56:50.052Z,2.63
2023-05-19T23:59:53.889Z,2.85
